sensor_id;sensor_type;location;lat;lon;timestamp;pressure;altitude;pressure_sealevel;temperature;humidity
22206;BME280;11272;50.104;8.754;2023-02-01T00:01:59;101130.56;;;6.27;100.00
22206;BME280;11272;50.104;8.754;2023-02-01T00:04:25;101117.41;;;6.28;100.00
22206;BME280;11272;50.104;8.754;2023-02-01T00:06:51;101116.53;;;6.28;100.00
22206;BME280;11272;50.104;8.754;2023-02-01T00:09:17;101120.06;;;6.30;100.00
22206;BME280;11272;50.104;8.754;2023-02-01T00:11:42;101118.31;;;6.32;100.00
22206;BME280;11272;50.104;8.754;2023-02-01T00:14:08;101123.56;;;6.32;100.00
22206;BME280;11272;50.104;8.754;2023-02-01T00:16:33;101112.13;;;6.31;100.00
22206;BME280;11272;50.104;8.754;2023-02-01T00:21:27;101114.78;;;6.33;100.00
22206;BME280;11272;50.104;8.754;2023-02-01T00:23:53;101109.53;;;6.34;100.00
22206;BME280;11272;50.104;8.754;2023-02-01T00:28:50;101108.69;;;6.39;100.00
22206;BME280;11272;50.104;8.754;2023-02-01T00:31:15;101106.06;;;6.40;100.00
22206;BME280;11272;50.104;8.754;2023-02-01T00:33:41;101113.97;;;6.42;100.00
22206;BME280;11272;50.104;8.754;2023-02-01T00:36:07;101104.31;;;6.42;100.00
22206;BME280;11272;50.104;8.754;2023-02-01T00:38:36;101092.88;;;6.42;100.00
22206;BME280;11272;50.104;8.754;2023-02-01T00:41:20;101103.41;;;6.42;100.00
22206;BME280;11272;50.104;8.754;2023-02-01T00:43:47;101105.19;;;6.40;100.00
22206;BME280;11272;50.104;8.754;2023-02-01T00:46:14;101106.91;;;6.38;100.00
22206;BME280;11272;50.104;8.754;2023-02-01T00:48:40;101110.41;;;6.37;100.00
22206;BME280;11272;50.104;8.754;2023-02-01T00:51:09;101102.50;;;6.37;100.00
22206;BME280;11272;50.104;8.754;2023-02-01T00:53:36;101111.31;;;6.37;100.00
22206;BME280;11272;50.104;8.754;2023-02-01T00:56:02;101087.59;;;6.39;100.00
22206;BME280;11272;50.104;8.754;2023-02-01T00:58:28;101088.47;;;6.39;100.00
22206;BME280;11272;50.104;8.754;2023-02-01T01:01:24;101084.94;;;6.37;100.00
22206;BME280;11272;50.104;8.754;2023-02-01T01:03:53;101078.78;;;6.38;100.00
22206;BME280;11272;50.104;8.754;2023-02-01T01:06:26;101086.72;;;6.40;100.00
22206;BME280;11272;50.104;8.754;2023-02-01T01:08:53;101109.59;;;6.41;100.00
22206;BME280;11272;50.104;8.754;2023-02-01T01:11:22;101101.66;;;6.42;100.00
22206;BME280;11272;50.104;8.754;2023-02-01T01:13:50;101099.03;;;6.44;100.00
22206;BME280;11272;50.104;8.754;2023-02-01T01:16:16;101097.28;;;6.44;100.00
22206;BME280;11272;50.104;8.754;2023-02-01T01:18:43;101101.69;;;6.45;100.00
22206;BME280;11272;50.104;8.754;2023-02-01T01:21:09;101090.28;;;6.46;100.00
22206;BME280;11272;50.104;8.754;2023-02-01T01:23:36;101086.75;;;6.47;100.00
22206;BME280;11272;50.104;8.754;2023-02-01T01:26:07;101079.72;;;6.46;100.00
22206;BME280;11272;50.104;8.754;2023-02-01T01:28:33;101082.34;;;6.48;100.00
22206;BME280;11272;50.104;8.754;2023-02-01T01:30:58;101094.66;;;6.49;100.00
22206;BME280;11272;50.104;8.754;2023-02-01T01:33:24;101078.88;;;6.50;100.00
22206;BME280;11272;50.104;8.754;2023-02-01T01:35:49;101080.63;;;6.50;100.00
22206;BME280;11272;50.104;8.754;2023-02-01T01:38:15;101076.22;;;6.52;100.00
22206;BME280;11272;50.104;8.754;2023-02-01T01:40:45;101068.31;;;6.53;100.00
22206;BME280;11272;50.104;8.754;2023-02-01T01:43:18;101072.69;;;6.53;100.00
22206;BME280;11272;50.104;8.754;2023-02-01T01:45:49;101072.72;;;6.54;100.00
22206;BME280;11272;50.104;8.754;2023-02-01T01:48:26;101070.06;;;6.53;100.00
22206;BME280;11272;50.104;8.754;2023-02-01T01:51:03;101070.09;;;6.51;100.00
22206;BME280;11272;50.104;8.754;2023-02-01T01:53:33;101057.75;;;6.50;100.00
22206;BME280;11272;50.104;8.754;2023-02-01T01:56:01;101064.78;;;6.53;100.00
22206;BME280;11272;50.104;8.754;2023-02-01T01:58:29;101070.94;;;6.53;100.00
22206;BME280;11272;50.104;8.754;2023-02-01T02:00:57;101069.19;;;6.54;100.00
22206;BME280;11272;50.104;8.754;2023-02-01T02:03:25;101076.22;;;6.53;100.00
22206;BME280;11272;50.104;8.754;2023-02-01T02:05:55;101060.41;;;6.55;100.00
22206;BME280;11272;50.104;8.754;2023-02-01T02:08:24;101058.66;;;6.55;100.00
22206;BME280;11272;50.104;8.754;2023-02-01T02:10:52;101049.84;;;6.55;100.00
22206;BME280;11272;50.104;8.754;2023-02-01T02:13:41;101026.13;;;6.56;100.00
22206;BME280;11272;50.104;8.754;2023-02-01T02:29:02;101028.78;;;6.59;100.00
22206;BME280;11272;50.104;8.754;2023-02-01T02:31:12;101036.69;;;6.61;100.00
22206;BME280;11272;50.104;8.754;2023-02-01T02:39:12;101046.38;;;6.63;100.00
22206;BME280;11272;50.104;8.754;2023-02-01T02:41:50;101050.75;;;6.63;100.00
22206;BME280;11272;50.104;8.754;2023-02-01T02:48:09;101067.47;;;6.60;100.00
22206;BME280;11272;50.104;8.754;2023-02-01T02:50:47;101061.34;;;6.61;100.00
22206;BME280;11272;50.104;8.754;2023-02-01T02:56:39;101058.69;;;6.61;100.00
22206;BME280;11272;50.104;8.754;2023-02-01T02:59:26;101049.91;;;6.62;100.00
22206;BME280;11272;50.104;8.754;2023-02-01T03:02:13;101046.38;;;6.63;100.00
22206;BME280;11272;50.104;8.754;2023-02-01T03:04:58;101051.66;;;6.63;100.00
22206;BME280;11272;50.104;8.754;2023-02-01T03:10:40;101035.81;;;6.63;99.92
22206;BME280;11272;50.104;8.754;2023-02-01T03:21:24;101029.66;;;6.63;99.57
22206;BME280;11272;50.104;8.754;2023-02-01T03:23:53;101022.63;;;6.62;99.58
22206;BME280;11272;50.104;8.754;2023-02-01T03:26:22;101027.03;;;6.61;99.50
22206;BME280;11272;50.104;8.754;2023-02-01T03:28:56;101023.50;;;6.61;99.64
22206;BME280;11272;50.104;8.754;2023-02-01T03:31:24;101020.88;;;6.61;99.42
22206;BME280;11272;50.104;8.754;2023-02-01T03:33:50;101022.63;;;6.60;99.63
22206;BME280;11272;50.104;8.754;2023-02-01T03:36:30;101025.25;;;6.60;99.63
22206;BME280;11272;50.104;8.754;2023-02-01T03:39:07;101018.22;;;6.59;99.00
22206;BME280;11272;50.104;8.754;2023-02-01T03:41:50;101018.22;;;6.59;99.31
22206;BME280;11272;50.104;8.754;2023-02-01T03:44:24;101007.66;;;6.59;99.44
22206;BME280;11272;50.104;8.754;2023-02-01T03:47:16;101013.81;;;6.60;99.11
22206;BME280;11272;50.104;8.754;2023-02-01T03:49:49;101023.47;;;6.58;99.17
22206;BME280;11272;50.104;8.754;2023-02-01T03:52:22;101019.97;;;6.59;98.95
22206;BME280;11272;50.104;8.754;2023-02-01T03:54:51;101009.41;;;6.59;99.09
22206;BME280;11272;50.104;8.754;2023-02-01T03:57:25;101009.44;;;6.60;98.88
22206;BME280;11272;50.104;8.754;2023-02-01T03:59:52;101005.03;;;6.61;99.12
22206;BME280;11272;50.104;8.754;2023-02-01T04:02:18;101002.41;;;6.61;98.86
22206;BME280;11272;50.104;8.754;2023-02-01T04:04:43;101001.50;;;6.60;98.72
22206;BME280;11272;50.104;8.754;2023-02-01T04:07:10;100999.75;;;6.59;98.35
22206;BME280;11272;50.104;8.754;2023-02-01T04:09:36;100997.09;;;6.58;98.31
22206;BME280;11272;50.104;8.754;2023-02-01T04:12:01;100992.72;;;6.57;98.20
22206;BME280;11272;50.104;8.754;2023-02-01T04:14:28;101007.66;;;6.58;98.23
22206;BME280;11272;50.104;8.754;2023-02-01T04:16:54;100998.84;;;6.57;98.15
22206;BME280;11272;50.104;8.754;2023-02-01T04:19:19;100994.47;;;6.59;98.18
22206;BME280;11272;50.104;8.754;2023-02-01T04:21:45;101007.66;;;6.59;97.78
22206;BME280;11272;50.104;8.754;2023-02-01T04:24:11;101007.69;;;6.61;98.23
22206;BME280;11272;50.104;8.754;2023-02-01T04:26:36;101000.66;;;6.61;97.82
22206;BME280;11272;50.104;8.754;2023-02-01T04:29:02;101000.63;;;6.63;97.95
22206;BME280;11272;50.104;8.754;2023-02-01T04:31:27;101000.66;;;6.64;97.88
22206;BME280;11272;50.104;8.754;2023-02-01T04:33:53;101002.41;;;6.65;97.80
22206;BME280;11272;50.104;8.754;2023-02-01T04:36:20;101009.44;;;6.65;97.51
22206;BME280;11272;50.104;8.754;2023-02-01T04:38:48;101012.97;;;6.65;97.75
22206;BME280;11272;50.104;8.754;2023-02-01T04:41:14;101012.97;;;6.68;98.00
22206;BME280;11272;50.104;8.754;2023-02-01T04:43:42;101015.63;;;6.70;97.54
22206;BME280;11272;50.104;8.754;2023-02-01T04:46:07;101009.47;;;6.69;97.39
22206;BME280;11272;50.104;8.754;2023-02-01T04:48:33;101012.09;;;6.69;97.47
22206;BME280;11272;50.104;8.754;2023-02-01T04:50:58;101007.69;;;6.68;97.67
22206;BME280;11272;50.104;8.754;2023-02-01T04:53:24;101008.56;;;6.69;97.33
22206;BME280;11272;50.104;8.754;2023-02-01T04:55:49;100998.03;;;6.67;97.34
22206;BME280;11272;50.104;8.754;2023-02-01T04:58:15;100999.78;;;6.68;97.28
22206;BME280;11272;50.104;8.754;2023-02-01T05:00:41;100992.75;;;6.67;97.13
22206;BME280;11272;50.104;8.754;2023-02-01T05:03:07;100991.84;;;6.68;97.46
22206;BME280;11272;50.104;8.754;2023-02-01T05:05:32;101008.59;;;6.67;97.12
22206;BME280;11272;50.104;8.754;2023-02-01T05:07:58;100989.22;;;6.67;97.01
22206;BME280;11272;50.104;8.754;2023-02-01T05:10:23;100997.13;;;6.65;97.09
22206;BME280;11272;50.104;8.754;2023-02-01T05:12:49;100994.50;;;6.65;97.07
22206;BME280;11272;50.104;8.754;2023-02-01T05:15:33;100998.88;;;6.63;97.14
22206;BME280;11272;50.104;8.754;2023-02-01T05:17:59;100991.84;;;6.62;96.87
22206;BME280;11272;50.104;8.754;2023-02-01T05:20:25;100989.22;;;6.62;97.04
22206;BME280;11272;50.104;8.754;2023-02-01T05:22:50;101000.66;;;6.61;97.08
22206;BME280;11272;50.104;8.754;2023-02-01T05:25:16;100990.06;;;6.63;97.08
22206;BME280;11272;50.104;8.754;2023-02-01T05:27:42;100987.44;;;6.64;97.06
22206;BME280;11272;50.104;8.754;2023-02-01T05:30:08;100994.50;;;6.65;96.95
22206;BME280;11272;50.104;8.754;2023-02-01T05:32:34;101000.66;;;6.67;96.93
22206;BME280;11272;50.104;8.754;2023-02-01T05:35:01;101002.41;;;6.68;96.84
22206;BME280;11272;50.104;8.754;2023-02-01T05:37:27;101004.19;;;6.69;96.67
22206;BME280;11272;50.104;8.754;2023-02-01T05:39:53;101003.31;;;6.70;96.90
22206;BME280;11272;50.104;8.754;2023-02-01T05:42:18;100991.88;;;6.71;96.50
22206;BME280;11272;50.104;8.754;2023-02-01T05:44:44;100994.53;;;6.73;96.51
22206;BME280;11272;50.104;8.754;2023-02-01T05:47:10;100996.28;;;6.75;96.67
22206;BME280;11272;50.104;8.754;2023-02-01T05:49:35;100990.13;;;6.75;96.40
22206;BME280;11272;50.104;8.754;2023-02-01T05:52:01;100988.38;;;6.75;96.10
22206;BME280;11272;50.104;8.754;2023-02-01T05:54:27;100990.13;;;6.76;95.72
22206;BME280;11272;50.104;8.754;2023-02-01T05:56:53;100993.66;;;6.75;95.70
22206;BME280;11272;50.104;8.754;2023-02-01T05:59:20;100988.38;;;6.75;95.63
22206;BME280;11272;50.104;8.754;2023-02-01T06:01:45;100980.44;;;6.74;95.25
22206;BME280;11272;50.104;8.754;2023-02-01T06:04:11;100969.88;;;6.69;94.79
22206;BME280;11272;50.104;8.754;2023-02-01T06:06:36;100960.16;;;6.59;94.34
22206;BME280;11272;50.104;8.754;2023-02-01T06:09:03;100967.19;;;6.51;93.93
22206;BME280;11272;50.104;8.754;2023-02-01T06:11:29;100972.41;;;6.42;93.90
22206;BME280;11272;50.104;8.754;2023-02-01T06:13:55;100980.28;;;6.36;93.44
22206;BME280;11272;50.104;8.754;2023-02-01T06:16:21;100977.66;;;6.30;93.63
22206;BME280;11272;50.104;8.754;2023-02-01T06:18:47;100972.34;;;6.27;93.87
22206;BME280;11272;50.104;8.754;2023-02-01T06:21:12;100960.91;;;6.26;94.61
22206;BME280;11272;50.104;8.754;2023-02-01T06:23:39;100974.13;;;6.28;94.62
22206;BME280;11272;50.104;8.754;2023-02-01T06:26:06;100977.63;;;6.28;94.52
22206;BME280;11272;50.104;8.754;2023-02-01T06:28:35;100982.03;;;6.29;94.51
22206;BME280;11272;50.104;8.754;2023-02-01T06:31:05;100983.78;;;6.32;94.85
22206;BME280;11272;50.104;8.754;2023-02-01T06:33:34;100984.69;;;6.34;94.29
22206;BME280;11272;50.104;8.754;2023-02-01T06:36:01;100985.59;;;6.34;94.70
22206;BME280;11272;50.104;8.754;2023-02-01T06:38:29;100982.94;;;6.34;94.25
22206;BME280;11272;50.104;8.754;2023-02-01T06:40:56;100977.66;;;6.30;94.06
22206;BME280;11272;50.104;8.754;2023-02-01T06:43:23;100987.28;;;6.26;93.84
22206;BME280;11272;50.104;8.754;2023-02-01T06:45:49;100975.81;;;6.20;93.06
22206;BME280;11272;50.104;8.754;2023-02-01T06:48:15;100980.19;;;6.13;92.85
22206;BME280;11272;50.104;8.754;2023-02-01T06:50:41;100985.47;;;6.09;93.12
22206;BME280;11272;50.104;8.754;2023-02-01T06:53:07;100989.84;;;6.08;93.53
22206;BME280;11272;50.104;8.754;2023-02-01T06:55:32;100989.81;;;6.05;93.48
22206;BME280;11272;50.104;8.754;2023-02-01T06:57:58;101002.97;;;6.02;93.39
22206;BME280;11272;50.104;8.754;2023-02-01T07:00:24;101002.06;;;5.97;93.16
22206;BME280;11272;50.104;8.754;2023-02-01T07:02:50;101004.72;;;5.97;93.52
22206;BME280;11272;50.104;8.754;2023-02-01T07:05:16;101000.28;;;5.95;93.22
22206;BME280;11272;50.104;8.754;2023-02-01T07:07:42;100995.00;;;5.91;93.50
22206;BME280;11272;50.104;8.754;2023-02-01T07:10:09;100993.25;;;5.90;93.36
22206;BME280;11272;50.104;8.754;2023-02-01T07:12:35;100986.19;;;5.89;93.24
22206;BME280;11272;50.104;8.754;2023-02-01T07:15:01;100982.69;;;5.89;93.50
22206;BME280;11272;50.104;8.754;2023-02-01T07:17:28;100980.03;;;5.89;93.49
22206;BME280;11272;50.104;8.754;2023-02-01T07:19:57;100980.94;;;5.89;93.28
22206;BME280;11272;50.104;8.754;2023-02-01T07:22:27;100971.25;;;5.88;93.12
22206;BME280;11272;50.104;8.754;2023-02-01T07:24:52;100972.16;;;5.90;93.28
22206;BME280;11272;50.104;8.754;2023-02-01T07:27:18;100972.16;;;5.90;93.23
22206;BME280;11272;50.104;8.754;2023-02-01T07:29:46;100978.31;;;5.93;93.01
22206;BME280;11272;50.104;8.754;2023-02-01T07:32:11;100985.34;;;5.92;92.91
22206;BME280;11272;50.104;8.754;2023-02-01T07:34:37;100991.50;;;5.93;92.97
22206;BME280;11272;50.104;8.754;2023-02-01T07:37:02;101004.66;;;5.94;92.57
22206;BME280;11272;50.104;8.754;2023-02-01T07:39:28;100997.66;;;5.95;92.61
22206;BME280;11272;50.104;8.754;2023-02-01T07:41:57;101004.66;;;5.94;92.41
22206;BME280;11272;50.104;8.754;2023-02-01T07:44:23;101013.47;;;5.95;92.82
22206;BME280;11272;50.104;8.754;2023-02-01T07:46:49;101019.66;;;5.98;92.78
22206;BME280;11272;50.104;8.754;2023-02-01T07:49:15;101018.78;;;6.04;92.54
22206;BME280;11272;50.104;8.754;2023-02-01T07:51:42;101032.91;;;6.10;92.50
22206;BME280;11272;50.104;8.754;2023-02-01T07:54:08;101037.38;;;6.22;92.78
22206;BME280;11272;50.104;8.754;2023-02-01T07:56:34;101048.84;;;6.31;92.32
22206;BME280;11272;50.104;8.754;2023-02-01T07:59:00;101041.84;;;6.38;92.12
22206;BME280;11272;50.104;8.754;2023-02-01T08:01:27;101033.06;;;6.42;91.23
22206;BME280;11272;50.104;8.754;2023-02-01T08:03:58;101028.72;;;6.46;90.87
22206;BME280;11272;50.104;8.754;2023-02-01T08:06:25;101035.75;;;6.48;90.35
22206;BME280;11272;50.104;8.754;2023-02-01T08:08:53;101027.88;;;6.51;89.71
22206;BME280;11272;50.104;8.754;2023-02-01T08:11:20;101033.13;;;6.53;89.53
22206;BME280;11272;50.104;8.754;2023-02-01T08:13:46;101037.56;;;6.58;89.39
22206;BME280;11272;50.104;8.754;2023-02-01T08:16:14;101042.84;;;6.63;89.43
22206;BME280;11272;50.104;8.754;2023-02-01T08:18:41;101045.50;;;6.69;88.98
22206;BME280;11272;50.104;8.754;2023-02-01T08:21:10;101046.44;;;6.72;88.68
22206;BME280;11272;50.104;8.754;2023-02-01T08:23:36;101044.69;;;6.78;88.66
22206;BME280;11272;50.104;8.754;2023-02-01T08:26:17;101061.41;;;6.81;88.48
22206;BME280;11272;50.104;8.754;2023-02-01T08:28:48;101046.47;;;6.82;87.69
22206;BME280;11272;50.104;8.754;2023-02-01T08:31:16;101057.88;;;6.81;87.66
22206;BME280;11272;50.104;8.754;2023-02-01T08:33:44;101064.94;;;6.83;87.58
22206;BME280;11272;50.104;8.754;2023-02-01T08:36:12;101056.16;;;6.89;87.51
22206;BME280;11272;50.104;8.754;2023-02-01T08:38:39;101053.53;;;6.93;87.19
22206;BME280;11272;50.104;8.754;2023-02-01T08:41:10;101058.84;;;6.98;86.78
22206;BME280;11272;50.104;8.754;2023-02-01T08:43:36;101067.63;;;7.01;86.93
22206;BME280;11272;50.104;8.754;2023-02-01T08:46:03;101067.66;;;7.04;86.44
22206;BME280;11272;50.104;8.754;2023-02-01T08:48:29;101068.53;;;7.06;86.02
22206;BME280;11272;50.104;8.754;2023-02-01T08:50:54;101064.16;;;7.10;85.89
22206;BME280;11272;50.104;8.754;2023-02-01T08:53:20;101067.69;;;7.13;85.70
22206;BME280;11272;50.104;8.754;2023-02-01T08:55:46;101073.84;;;7.17;85.58
22206;BME280;11272;50.104;8.754;2023-02-01T08:58:13;101071.19;;;7.17;84.86
22206;BME280;11272;50.104;8.754;2023-02-01T09:00:40;101070.31;;;7.18;84.36
22206;BME280;11272;50.104;8.754;2023-02-01T09:03:09;101071.19;;;7.17;84.31
22206;BME280;11272;50.104;8.754;2023-02-01T09:05:35;101060.63;;;7.17;83.89
22206;BME280;11272;50.104;8.754;2023-02-01T09:08:01;101066.81;;;7.24;84.22
22206;BME280;11272;50.104;8.754;2023-02-01T09:10:26;101063.31;;;7.28;83.29
22206;BME280;11272;50.104;8.754;2023-02-01T09:12:52;101065.94;;;7.32;82.96
22206;BME280;11272;50.104;8.754;2023-02-01T09:15:17;101062.44;;;7.33;82.76
22206;BME280;11272;50.104;8.754;2023-02-01T09:17:43;101056.28;;;7.34;82.42
22206;BME280;11272;50.104;8.754;2023-02-01T09:20:09;101058.03;;;7.38;81.72
22206;BME280;11272;50.104;8.754;2023-02-01T09:22:35;101065.97;;;7.38;81.62
22206;BME280;11272;50.104;8.754;2023-02-01T09:25:00;101079.19;;;7.40;80.79
22206;BME280;11272;50.104;8.754;2023-02-01T09:27:26;101086.25;;;7.41;80.50
22206;BME280;11272;50.104;8.754;2023-02-01T09:29:51;101088.91;;;7.42;80.78
22206;BME280;11272;50.104;8.754;2023-02-01T09:32:22;101089.75;;;7.41;79.29
22206;BME280;11272;50.104;8.754;2023-02-01T09:34:52;101093.28;;;7.40;78.91
22206;BME280;11272;50.104;8.754;2023-02-01T09:37:18;101097.69;;;7.40;78.53
22206;BME280;11272;50.104;8.754;2023-02-01T09:39:44;101107.38;;;7.41;78.49
22206;BME280;11272;50.104;8.754;2023-02-01T09:42:25;101117.06;;;7.43;77.76
22206;BME280;11272;50.104;8.754;2023-02-01T09:45:06;101124.09;;;7.44;76.93
22206;BME280;11272;50.104;8.754;2023-02-01T09:47:39;101127.66;;;7.46;76.67
22206;BME280;11272;50.104;8.754;2023-02-01T09:50:15;101121.50;;;7.47;76.05
22206;BME280;11272;50.104;8.754;2023-02-01T09:53:01;101132.03;;;7.49;75.70
22206;BME280;11272;50.104;8.754;2023-02-01T09:55:48;101132.94;;;7.51;74.88
22206;BME280;11272;50.104;8.754;2023-02-01T09:58:20;101133.84;;;7.53;74.88
22206;BME280;11272;50.104;8.754;2023-02-01T10:00:52;101124.13;;;7.53;74.55
22206;BME280;11272;50.104;8.754;2023-02-01T10:03:19;101119.75;;;7.57;74.50
22206;BME280;11272;50.104;8.754;2023-02-01T10:11:32;101111.81;;;7.58;72.73
22206;BME280;11272;50.104;8.754;2023-02-01T10:17:17;101115.34;;;7.64;72.67
22206;BME280;11272;50.104;8.754;2023-02-01T10:22:40;101117.13;;;7.68;72.63
22206;BME280;11272;50.104;8.754;2023-02-01T10:25:29;101113.59;;;7.69;72.47
22206;BME280;11272;50.104;8.754;2023-02-01T10:27:59;101112.69;;;7.70;72.26
22206;BME280;11272;50.104;8.754;2023-02-01T10:30:30;101094.19;;;7.70;71.81
22206;BME280;11272;50.104;8.754;2023-02-01T10:33:18;101088.03;;;7.71;71.83
22206;BME280;11272;50.104;8.754;2023-02-01T10:35:45;101089.81;;;7.73;71.60
22206;BME280;11272;50.104;8.754;2023-02-01T10:38:37;101075.69;;;7.71;70.86
22206;BME280;11272;50.104;8.754;2023-02-01T10:41:10;101077.44;;;7.71;70.84
22206;BME280;11272;50.104;8.754;2023-02-01T10:43:38;101066.88;;;7.72;71.40
22206;BME280;11272;50.104;8.754;2023-02-01T10:46:05;101078.34;;;7.73;70.77
22206;BME280;11272;50.104;8.754;2023-02-01T10:48:31;101070.44;;;7.74;71.26
22206;BME280;11272;50.104;8.754;2023-02-01T10:51:02;101071.28;;;7.75;71.13
22206;BME280;11272;50.104;8.754;2023-02-01T10:53:36;101062.50;;;7.74;70.41
22206;BME280;11272;50.104;8.754;2023-02-01T10:56:09;101070.41;;;7.77;71.00
22206;BME280;11272;50.104;8.754;2023-02-01T10:58:43;101067.78;;;7.79;71.04
22206;BME280;11272;50.104;8.754;2023-02-01T11:01:16;101052.81;;;7.79;70.76
22206;BME280;11272;50.104;8.754;2023-02-01T11:03:59;101052.78;;;7.81;70.50
22206;BME280;11272;50.104;8.754;2023-02-01T11:06:36;101058.06;;;7.81;70.52
22206;BME280;11272;50.104;8.754;2023-02-01T11:11:52;101054.56;;;7.79;69.58
22206;BME280;11272;50.104;8.754;2023-02-01T11:16:55;101061.63;;;7.80;69.20
22206;BME280;11272;50.104;8.754;2023-02-01T11:19:22;101055.41;;;7.81;69.32
22206;BME280;11272;50.104;8.754;2023-02-01T11:21:53;101051.03;;;7.80;69.47
22206;BME280;11272;50.104;8.754;2023-02-01T11:24:23;101051.91;;;7.79;69.13
22206;BME280;11272;50.104;8.754;2023-02-01T11:26:50;101053.69;;;7.80;68.52
22206;BME280;11272;50.104;8.754;2023-02-01T11:29:18;101046.63;;;7.82;68.88
22206;BME280;11272;50.104;8.754;2023-02-01T11:37:42;101043.09;;;7.86;68.29
22206;BME280;11272;50.104;8.754;2023-02-01T11:42:54;101034.28;;;7.88;68.33
22206;BME280;11272;50.104;8.754;2023-02-01T11:45:30;101029.88;;;7.89;68.55
22206;BME280;11272;50.104;8.754;2023-02-01T11:47:57;101025.44;;;7.91;68.42
22206;BME280;11272;50.104;8.754;2023-02-01T11:50:49;101028.09;;;7.94;68.65
22206;BME280;11272;50.104;8.754;2023-02-01T11:56:05;101028.09;;;7.98;68.12
22206;BME280;11272;50.104;8.754;2023-02-01T11:59:11;101026.34;;;7.99;68.17
22206;BME280;11272;50.104;8.754;2023-02-01T12:04:22;101043.09;;;8.01;68.56
22206;BME280;11272;50.104;8.754;2023-02-01T12:06:56;101036.91;;;8.02;67.97
22206;BME280;11272;50.104;8.754;2023-02-01T12:09:45;101029.00;;;8.00;67.71
22206;BME280;11272;50.104;8.754;2023-02-01T12:12:21;101018.38;;;8.02;68.00
22206;BME280;11272;50.104;8.754;2023-02-01T12:20:52;101012.22;;;8.04;67.68
22206;BME280;11272;50.104;8.754;2023-02-01T12:26:33;101014.88;;;8.03;67.73
22206;BME280;11272;50.104;8.754;2023-02-01T12:29:33;101020.16;;;8.04;68.04
22206;BME280;11272;50.104;8.754;2023-02-01T12:32:09;101012.22;;;8.06;67.92
22206;BME280;11272;50.104;8.754;2023-02-01T12:40:35;101013.09;;;8.14;67.50
22206;BME280;11272;50.104;8.754;2023-02-01T12:43:12;101016.59;;;8.15;67.60
22206;BME280;11272;50.104;8.754;2023-02-01T12:45:53;100998.97;;;8.17;67.25
22206;BME280;11272;50.104;8.754;2023-02-01T12:48:34;100984.88;;;8.16;67.07
22206;BME280;11272;50.104;8.754;2023-02-01T12:51:10;100987.53;;;8.16;67.07
22206;BME280;11272;50.104;8.754;2023-02-01T12:59:02;100995.44;;;8.16;67.23
22206;BME280;11272;50.104;8.754;2023-02-01T13:01:46;100983.09;;;8.15;66.94
22206;BME280;11272;50.104;8.754;2023-02-01T13:07:41;100976.94;;;8.15;67.27
22206;BME280;11272;50.104;8.754;2023-02-01T13:10:16;100979.56;;;8.15;67.56
22206;BME280;11272;50.104;8.754;2023-02-01T13:12:51;100969.88;;;8.17;67.22
22206;BME280;11272;50.104;8.754;2023-02-01T13:15:33;100984.00;;;8.16;67.34
22206;BME280;11272;50.104;8.754;2023-02-01T13:18:03;100985.75;;;8.15;67.30
22206;BME280;11272;50.104;8.754;2023-02-01T13:20:32;100977.81;;;8.15;67.33
22206;BME280;11272;50.104;8.754;2023-02-01T13:23:04;100978.69;;;8.16;66.72
22206;BME280;11272;50.104;8.754;2023-02-01T13:25:47;100964.56;;;8.20;66.90
22206;BME280;11272;50.104;8.754;2023-02-01T13:28:20;100964.53;;;8.23;67.14
22206;BME280;11272;50.104;8.754;2023-02-01T13:37:27;100964.53;;;8.29;66.61
22206;BME280;11272;50.104;8.754;2023-02-01T13:40:18;100973.38;;;8.28;65.87
22206;BME280;11272;50.104;8.754;2023-02-01T13:42:52;100966.31;;;8.30;65.65
22206;BME280;11272;50.104;8.754;2023-02-01T13:45:28;100961.91;;;8.32;65.66
22206;BME280;11272;50.104;8.754;2023-02-01T13:47:57;100950.44;;;8.34;65.45
22206;BME280;11272;50.104;8.754;2023-02-01T13:50:30;100959.25;;;8.38;65.33
22206;BME280;11272;50.104;8.754;2023-02-01T13:52:59;100955.72;;;8.42;65.57
22206;BME280;11272;50.104;8.754;2023-02-01T13:55:27;100954.81;;;8.43;65.30
22206;BME280;11272;50.104;8.754;2023-02-01T13:58:04;100953.06;;;8.43;64.69
22206;BME280;11272;50.104;8.754;2023-02-01T14:00:36;100958.31;;;8.45;65.27
22206;BME280;11272;50.104;8.754;2023-02-01T14:03:08;100939.78;;;8.45;64.44
22206;BME280;11272;50.104;8.754;2023-02-01T14:10:59;100939.81;;;8.48;63.99
22206;BME280;11272;50.104;8.754;2023-02-01T14:21:25;100913.28;;;8.56;64.69
22206;BME280;11272;50.104;8.754;2023-02-01T14:26:42;100915.03;;;8.60;63.71
22206;BME280;11272;50.104;8.754;2023-02-01T14:29:34;100919.44;;;8.64;63.75
22206;BME280;11272;50.104;8.754;2023-02-01T14:32:17;100909.69;;;8.66;64.06
22206;BME280;11272;50.104;8.754;2023-02-01T14:42:42;100912.25;;;8.78;62.59
22206;BME280;11272;50.104;8.754;2023-02-01T14:50:42;100908.69;;;8.83;62.44
22206;BME280;11272;50.104;8.754;2023-02-01T15:00:59;100909.50;;;8.96;62.70
22206;BME280;11272;50.104;8.754;2023-02-01T15:06:26;100907.75;;;8.97;62.27
22206;BME280;11272;50.104;8.754;2023-02-01T15:09:15;100907.75;;;8.97;62.00
22206;BME280;11272;50.104;8.754;2023-02-01T15:14:19;100911.22;;;8.99;61.98
22206;BME280;11272;50.104;8.754;2023-02-01T15:16:45;100905.06;;;8.98;61.79
22206;BME280;11272;50.104;8.754;2023-02-01T15:19:20;100914.75;;;8.99;62.10
22206;BME280;11272;50.104;8.754;2023-02-01T15:21:50;100924.47;;;9.00;62.06
22206;BME280;11272;50.104;8.754;2023-02-01T15:24:23;100916.53;;;9.02;61.47
22206;BME280;11272;50.104;8.754;2023-02-01T15:26:50;100920.03;;;9.04;61.35
22206;BME280;11272;50.104;8.754;2023-02-01T15:29:17;100906.78;;;9.05;61.15
22206;BME280;11272;50.104;8.754;2023-02-01T15:31:46;100909.44;;;9.05;60.73
22206;BME280;11272;50.104;8.754;2023-02-01T15:34:12;100912.97;;;9.04;60.76
22206;BME280;11272;50.104;8.754;2023-02-01T15:36:38;100914.75;;;9.02;60.20
22206;BME280;11272;50.104;8.754;2023-02-01T15:39:23;100919.19;;;9.00;60.80